Time,TemperatureF,DewpointF,PressureIn,WindDirection,WindDirectionDegrees,WindSpeedMPH,WindSpeedGustMPH,Humidity,HourlyPrecipIn,Conditions,Clouds,dailyrainin,SoftwareType,DateUTC
2013-04-07 00:02:00,26.0,17.0,-100.00,WNW,290,7.0,9.0,68,0.00,,,-99.99,,2013-04-07 06:02:00,
2013-04-07 00:12:00,26.0,17.0,-100.00,WNW,290,7.0,9.0,68,0.00,,,-99.99,,2013-04-07 06:12:00,
2013-04-07 00:22:00,28.0,17.0,-100.00,West,280,4.0,7.0,62,0.00,,,-99.99,,2013-04-07 06:22:00,
2013-04-07 00:32:00,28.0,17.0,-100.00,SSE,165,2.0,6.0,62,0.00,,,-99.99,,2013-04-07 06:32:00,
2013-04-07 00:42:00,29.0,18.0,-100.00,WNW,295,1.0,6.0,62,0.00,,,-99.99,,2013-04-07 06:42:00,
2013-04-07 00:52:00,29.0,18.0,-100.00,North,350,7.0,9.0,61,0.00,,,-99.99,,2013-04-07 06:52:00,
2013-04-07 01:02:00,31.0,20.0,-100.00,NW,315,9.0,12.0,62,0.00,,,-99.99,,2013-04-07 07:02:00,
2013-04-07 01:12:00,31.0,21.0,-100.00,NW,320,6.0,11.0,65,0.00,,,-99.99,,2013-04-07 07:12:00,
2013-04-07 01:22:00,31.0,22.0,-100.00,WSW,250,4.0,7.0,67,0.00,,,-99.99,,2013-04-07 07:22:00,
2013-04-07 01:32:00,30.0,22.0,-100.00,WSW,240,2.0,2.0,71,0.00,,,-99.99,,2013-04-07 07:32:00,
2013-04-07 01:42:00,30.0,23.0,-100.00,SW,220,3.0,3.0,74,0.00,,,-99.99,,2013-04-07 07:42:00,
2013-04-07 01:52:00,29.0,23.0,-100.00,West,270,2.0,3.0,76,0.00,,,-99.99,,2013-04-07 07:52:00,
2013-04-07 02:02:00,30.0,23.0,-100.00,West,265,3.0,5.0,77,0.00,,,-99.99,,2013-04-07 08:02:00,
2013-04-07 02:12:00,30.0,24.0,-100.00,SW,220,5.0,6.0,76,0.00,,,-99.99,,2013-04-07 08:12:00,
2013-04-07 02:22:00,30.0,24.0,-100.00,SW,230,4.0,7.0,76,0.00,,,-99.99,,2013-04-07 08:22:00,
2013-04-07 02:32:00,30.0,22.0,-100.00,NNW,345,7.0,9.0,72,0.00,,,-99.99,,2013-04-07 08:32:00,
2013-04-07 02:42:00,29.0,21.0,-100.00,NNE,20,5.0,8.0,71,0.00,,,-99.99,,2013-04-07 08:42:00,
2013-04-07 02:52:00,29.0,21.0,-100.00,North,0,7.0,10.0,69,0.00,,,-99.99,,2013-04-07 08:52:00,
2013-04-07 03:02:00,28.0,20.0,-100.00,SSW,210,1.0,8.0,71,0.00,,,-99.99,,2013-04-07 09:02:00,
2013-04-07 03:12:00,27.0,19.0,-100.00,NW,315,1.0,7.0,72,0.00,,,-99.99,,2013-04-07 09:12:00,
2013-04-07 03:22:00,27.0,19.0,-100.00,NW,320,2.0,6.0,71,0.00,,,-99.99,,2013-04-07 09:22:00,
2013-04-07 03:33:00,29.0,19.0,-100.00,WSW,250,6.0,8.0,66,0.00,,,-99.99,,2013-04-07 09:33:00,
2013-04-07 03:43:00,29.0,17.0,-100.00,NW,305,7.0,12.0,61,0.00,,,-99.99,,2013-04-07 09:43:00,
2013-04-07 03:53:00,29.0,16.0,-100.00,WNW,285,11.0,15.0,57,0.00,,,-99.99,,2013-04-07 09:53:00,
2013-04-07 04:04:00,29.0,15.0,-100.00,WNW,290,9.0,17.0,55,0.00,,,-99.99,,2013-04-07 10:04:00,
2013-04-07 04:13:00,30.0,15.0,-100.00,SW,235,8.0,19.0,52,0.00,,,-99.99,,2013-04-07 10:13:00,
2013-04-07 04:23:00,30.0,14.0,-100.00,WSW,255,7.0,17.0,50,0.00,,,-99.99,,2013-04-07 10:23:00,
2013-04-07 04:33:00,29.0,13.0,-100.00,WSW,245,4.0,15.0,52,0.00,,,-99.99,,2013-04-07 10:33:00,
2013-04-07 04:43:00,30.0,13.0,-100.00,WNW,285,8.0,14.0,49,0.00,,,-99.99,,2013-04-07 10:43:00,
2013-04-07 04:53:00,29.0,13.0,-100.00,NW,305,7.0,17.0,50,0.00,,,-99.99,,2013-04-07 10:53:00,
2013-04-07 05:03:00,29.0,13.0,-100.00,WNW,295,10.0,15.0,50,0.00,,,-99.99,,2013-04-07 11:03:00,
2013-04-07 05:12:00,29.0,13.0,-100.00,WNW,295,12.0,17.0,50,0.00,,,-99.99,,2013-04-07 11:12:00,
2013-04-07 05:22:00,29.0,13.0,-100.00,NW,320,12.0,17.0,50,0.00,,,-99.99,,2013-04-07 11:22:00,
2013-04-07 05:33:00,29.0,13.0,-100.00,NW,320,15.0,20.0,49,0.00,,,-99.99,,2013-04-07 11:33:00,
2013-04-07 05:42:00,29.0,13.0,-100.00,NNW,335,11.0,19.0,49,0.00,,,-99.99,,2013-04-07 11:42:00,
2013-04-07 05:52:00,29.0,12.0,-100.00,NNW,335,10.0,17.0,49,0.00,,,-99.99,,2013-04-07 11:52:00,
2013-04-07 06:02:00,28.0,12.0,-100.00,NNW,335,9.0,17.0,51,0.00,,,-99.99,,2013-04-07 12:02:00,
2013-04-07 06:12:00,27.0,12.0,-100.00,NNW,345,7.0,12.0,54,0.00,,,-99.99,,2013-04-07 12:12:00,
2013-04-07 06:23:00,27.0,13.0,-100.00,NW,320,10.0,14.0,53,0.00,,,-99.99,,2013-04-07 12:23:00,
2013-04-07 06:34:00,29.0,13.0,-100.00,WNW,300,16.0,24.0,49,0.00,,,-99.99,,2013-04-07 12:34:00,
2013-04-07 06:43:00,30.0,12.0,-100.00,NW,305,19.0,25.0,47,0.00,,,-99.99,,2013-04-07 12:43:00,
2013-04-07 06:53:00,30.0,12.0,-100.00,WNW,295,16.0,27.0,46,0.00,,,-99.99,,2013-04-07 12:53:00,
2013-04-07 07:03:00,30.0,12.0,-100.00,NW,305,21.0,28.0,46,0.00,,,-99.99,,2013-04-07 13:03:00,
2013-04-07 07:13:00,30.0,12.0,-100.00,NNW,340,13.0,28.0,45,0.00,,,-99.99,,2013-04-07 13:13:00,
2013-04-07 07:22:00,30.0,12.0,-100.00,NW,320,14.0,27.0,45,0.00,,,-99.99,,2013-04-07 13:22:00,
2013-04-07 07:32:00,31.0,12.0,-100.00,NW,315,17.0,31.0,44,0.00,,,-99.99,,2013-04-07 13:32:00,
2013-04-07 07:42:00,32.0,12.0,-100.00,North,10,11.0,20.0,43,0.00,,,-99.99,,2013-04-07 13:42:00,
2013-04-07 07:52:00,31.0,13.0,-100.00,North,350,7.0,16.0,46,0.00,,,-99.99,,2013-04-07 13:52:00,
2013-04-07 08:02:00,31.0,13.0,-100.00,NE,50,7.0,12.0,45,0.00,,,-99.99,,2013-04-07 14:02:00,
2013-04-07 08:12:00,31.0,12.0,-100.00,NNE,20,9.0,21.0,45,0.00,,,-99.99,,2013-04-07 14:12:00,
2013-04-07 08:23:00,31.0,12.0,-100.00,North,10,10.0,17.0,45,0.00,,,-99.99,,2013-04-07 14:23:00,
2013-04-07 08:33:00,33.0,12.0,-100.00,NNE,15,7.0,17.0,42,0.00,,,-99.99,,2013-04-07 14:33:00,
2013-04-07 08:43:00,34.0,13.0,-100.00,NNE,30,6.0,13.0,41,0.00,,,-99.99,,2013-04-07 14:43:00,
2013-04-07 08:53:00,35.0,13.0,-100.00,WNW,290,9.0,17.0,38,0.00,,,-99.99,,2013-04-07 14:53:00,
2013-04-07 09:03:00,36.0,12.0,-100.00,NW,310,9.0,17.0,36,0.00,,,-99.99,,2013-04-07 15:03:00,
2013-04-07 09:12:00,36.0,11.0,-100.00,West,280,11.0,17.0,34,0.00,,,-99.99,,2013-04-07 15:12:00,
2013-04-07 09:22:00,36.0,11.0,-100.00,West,265,11.0,19.0,34,0.00,,,-99.99,,2013-04-07 15:22:00,
2013-04-07 09:34:00,37.0,11.0,-100.00,West,270,12.0,18.0,34,0.00,,,-99.99,,2013-04-07 15:34:00,
2013-04-07 09:44:00,38.0,11.0,-100.00,WNW,285,13.0,18.0,32,0.00,,,-99.99,,2013-04-07 15:44:00,
2013-04-07 09:53:00,38.0,11.0,-100.00,WNW,295,17.0,24.0,32,0.00,,,-99.99,,2013-04-07 15:53:00,
2013-04-07 10:04:00,38.0,10.0,-100.00,NW,305,17.0,28.0,31,0.00,,,-99.99,,2013-04-07 16:04:00,
2013-04-07 10:13:00,38.0,10.0,-100.00,WNW,300,15.0,24.0,30,0.00,,,-99.99,,2013-04-07 16:13:00,
2013-04-07 10:24:00,39.0,11.0,-100.00,NW,305,12.0,24.0,30,0.00,,,-99.99,,2013-04-07 16:24:00,
2013-04-07 10:33:00,39.0,10.0,-100.00,West,280,14.0,26.0,30,0.00,,,-99.99,,2013-04-07 16:33:00,
2013-04-07 10:43:00,40.0,11.0,-100.00,West,275,14.0,23.0,29,0.00,,,-99.99,,2013-04-07 16:43:00,
2013-04-07 10:53:00,41.0,11.0,-100.00,NW,305,13.0,21.0,28,0.00,,,-99.99,,2013-04-07 16:53:00,
2013-04-07 11:13:00,40.0,9.0,-100.00,WNW,285,18.0,34.0,27,0.00,,,-99.99,,2013-04-07 17:13:00,
2013-04-07 11:23:00,42.0,10.0,-100.00,NW,305,15.0,27.0,26,0.00,,,-99.99,,2013-04-07 17:23:00,
2013-04-07 11:33:00,42.0,10.0,-100.00,NW,305,11.0,22.0,26,0.00,,,-99.99,,2013-04-07 17:33:00,
2013-04-07 11:43:00,41.0,9.0,-100.00,WNW,285,15.0,25.0,26,0.00,,,-99.99,,2013-04-07 17:43:00,
2013-04-07 11:52:00,42.0,10.0,-100.00,NW,305,14.0,22.0,26,0.00,,,-99.99,,2013-04-07 17:52:00,
2013-04-07 12:02:00,42.0,10.0,-100.00,WNW,300,12.0,24.0,26,0.00,,,-99.99,,2013-04-07 18:02:00,
2013-04-07 12:13:00,44.0,11.0,-100.00,NNW,330,17.0,32.0,26,0.00,,,-99.99,,2013-04-07 18:13:00,
2013-04-07 12:23:00,42.0,10.0,-100.00,WNW,295,12.0,25.0,26,0.00,,,-99.99,,2013-04-07 18:23:00,
2013-04-07 12:33:00,44.0,11.0,-100.00,NW,320,15.0,24.0,25,0.00,,,-99.99,,2013-04-07 18:33:00,
2013-04-07 12:43:00,45.0,12.0,-100.00,WNW,285,16.0,24.0,25,0.00,,,-99.99,,2013-04-07 18:43:00,
2013-04-07 12:52:00,43.0,11.0,-100.00,WNW,295,17.0,26.0,25,0.00,,,-99.99,,2013-04-07 18:52:00,
2013-04-07 13:02:00,44.0,10.0,-100.00,WNW,285,23.0,33.0,24,0.00,,,-99.99,,2013-04-07 19:02:00,
2013-04-07 13:12:00,42.0,10.0,-100.00,West,270,22.0,34.0,26,0.00,,,-99.99,,2013-04-07 19:12:00,
2013-04-07 13:22:00,42.0,10.0,-100.00,West,280,11.0,26.0,26,0.00,,,-99.99,,2013-04-07 19:22:00,
2013-04-07 13:32:00,44.0,11.0,-100.00,NW,315,18.0,25.0,25,0.00,,,-99.99,,2013-04-07 19:32:00,
2013-04-07 13:42:00,42.0,10.0,-100.00,NW,305,16.0,24.0,25,0.00,,,-99.99,,2013-04-07 19:42:00,
2013-04-07 13:53:00,34.0,10.0,-100.00,West,275,35.0,44.0,35,0.00,,,-99.99,,2013-04-07 19:53:00,
2013-04-07 14:03:00,31.0,22.0,-100.00,WSW,250,14.0,29.0,69,0.00,,,-99.99,,2013-04-07 20:03:00,
2013-04-07 14:13:00,35.0,26.0,-100.00,WSW,250,9.0,16.0,69,0.00,,,-99.99,,2013-04-07 20:13:00,
2013-04-07 14:22:00,38.0,25.0,-100.00,NNE,30,4.0,11.0,58,0.00,,,-99.99,,2013-04-07 20:22:00,
2013-04-07 14:33:00,40.0,24.0,-100.00,ENE,70,5.0,11.0,51,0.00,,,-99.99,,2013-04-07 20:33:00,
2013-04-07 14:43:00,40.0,19.0,-100.00,NE,55,6.0,12.0,41,0.00,,,-99.99,,2013-04-07 20:43:00,
2013-04-07 14:52:00,43.0,15.0,-100.00,West,260,13.0,20.0,31,0.00,,,-99.99,,2013-04-07 20:52:00,
2013-04-07 15:03:00,43.0,13.0,-100.00,West,275,17.0,26.0,29,0.00,,,-99.99,,2013-04-07 21:03:00,
2013-04-07 15:13:00,42.0,12.0,-100.00,WNW,290,13.0,24.0,29,0.00,,,-99.99,,2013-04-07 21:13:00,
2013-04-07 15:22:00,40.0,12.0,-100.00,West,265,11.0,21.0,31,0.00,,,-99.99,,2013-04-07 21:22:00,
2013-04-07 15:34:00,38.0,13.0,-100.00,NW,305,11.0,22.0,35,0.00,,,-99.99,,2013-04-07 21:34:00,
2013-04-07 15:43:00,39.0,15.0,-100.00,NNW,340,9.0,16.0,37,0.00,,,-99.99,,2013-04-07 21:43:00,
2013-04-07 15:53:00,37.0,15.0,-100.00,WNW,300,20.0,31.0,38,0.00,,,-99.99,,2013-04-07 21:53:00,
2013-04-07 16:03:00,34.0,19.0,-100.00,WNW,300,19.0,27.0,54,0.00,,,-99.99,,2013-04-07 22:03:00,
2013-04-07 16:14:00,33.0,23.0,-100.00,West,270,13.0,20.0,66,0.00,,,-99.99,,2013-04-07 22:14:00,
2013-04-07 16:23:00,33.0,23.0,-100.00,West,280,10.0,17.0,66,0.10,,,-99.99,,2013-04-07 22:23:00,
2013-04-07 16:34:00,31.0,25.0,-100.00,West,270,11.0,39.0,79,0.10,,,-99.99,,2013-04-07 22:34:00,
2013-04-07 16:43:00,31.0,27.0,-100.00,WNW,285,10.0,14.0,83,0.00,,,-99.99,,2013-04-07 22:43:00,
2013-04-07 16:53:00,33.0,29.0,-100.00,NW,305,8.0,11.0,83,0.00,,,-99.99,,2013-04-07 22:53:00,
2013-04-07 17:03:00,35.0,29.0,-100.00,NNE,25,6.0,10.0,79,0.00,,,-99.99,,2013-04-07 23:03:00,
2013-04-07 17:13:00,36.0,28.0,-100.00,NNE,15,6.0,9.0,73,0.00,,,-99.99,,2013-04-07 23:13:00,
2013-04-07 17:22:00,37.0,27.0,-100.00,North,10,7.0,10.0,65,0.00,,,-99.99,,2013-04-07 23:22:00,
2013-04-07 17:32:00,36.0,24.0,-100.00,NNE,25,7.0,11.0,61,0.00,,,-99.99,,2013-04-07 23:32:00,
2013-04-07 17:43:00,36.0,25.0,-100.00,NE,45,8.0,11.0,62,0.00,,,-99.99,,2013-04-07 23:43:00,
2013-04-07 17:52:00,37.0,22.0,-100.00,West,265,20.0,24.0,52,0.00,,,-99.99,,2013-04-07 23:52:00,
2013-04-07 18:02:00,37.0,21.0,-100.00,West,280,10.0,19.0,50,0.00,,,-99.99,,2013-04-08 00:02:00,
2013-04-07 18:12:00,39.0,20.0,-100.00,NW,320,9.0,13.0,47,0.00,,,-99.99,,2013-04-08 00:12:00,
2013-04-07 18:22:00,38.0,19.0,-100.00,WNW,290,9.0,14.0,45,0.00,,,-99.99,,2013-04-08 00:22:00,
2013-04-07 18:32:00,39.0,15.0,-100.00,WSW,250,14.0,24.0,37,0.00,,,-99.99,,2013-04-08 00:32:00,
2013-04-07 18:42:00,39.0,13.0,-100.00,WSW,255,14.0,24.0,34,0.00,,,-99.99,,2013-04-08 00:42:00,
2013-04-07 18:52:00,39.0,12.0,-100.00,WSW,240,14.0,23.0,32,0.00,,,-99.99,,2013-04-08 00:52:00,
2013-04-07 19:03:00,39.0,12.0,-100.00,WSW,245,10.0,18.0,32,0.00,,,-99.99,,2013-04-08 01:03:00,
2013-04-07 19:12:00,39.0,12.0,-100.00,WSW,240,11.0,16.0,32,0.00,,,-99.99,,2013-04-08 01:12:00,
2013-04-07 19:22:00,38.0,12.0,-100.00,WSW,250,9.0,15.0,33,0.00,,,-99.99,,2013-04-08 01:22:00,
2013-04-07 19:33:00,37.0,11.0,-100.00,WSW,250,8.0,16.0,33,0.00,,,-99.99,,2013-04-08 01:33:00,
2013-04-07 19:43:00,36.0,11.0,-100.00,West,260,8.0,14.0,34,0.00,,,-99.99,,2013-04-08 01:43:00,
2013-04-07 19:53:00,35.0,11.0,-100.00,WSW,255,9.0,14.0,36,0.00,,,-99.99,,2013-04-08 01:53:00,
2013-04-07 20:03:00,34.0,11.0,-100.00,West,270,11.0,17.0,37,0.00,,,-99.99,,2013-04-08 02:03:00,
2013-04-07 20:12:00,35.0,11.0,-100.00,WNW,290,9.0,14.0,37,0.00,,,-99.99,,2013-04-08 02:12:00,
2013-04-07 20:22:00,35.0,11.0,-100.00,WNW,295,7.0,15.0,36,0.00,,,-99.99,,2013-04-08 02:22:00,
2013-04-07 20:33:00,33.0,11.0,-100.00,West,280,9.0,16.0,38,0.00,,,-99.99,,2013-04-08 02:33:00,
2013-04-07 20:53:00,30.0,11.0,-100.00,WNW,290,8.0,10.0,43,0.00,,,-99.99,,2013-04-08 02:53:00,
2013-04-07 21:07:00,31.0,11.0,-100.00,West,280,9.0,12.0,42,0.00,,,-99.99,,2013-04-08 03:07:00,
2013-04-07 21:15:00,31.0,11.0,-100.00,WSW,250,9.0,12.0,41,0.00,,,-99.99,,2013-04-08 03:15:00,
2013-04-07 21:24:00,35.0,11.0,-100.00,WSW,250,11.0,18.0,36,0.00,,,-99.99,,2013-04-08 03:24:00,
2013-04-07 21:34:00,34.0,10.0,-100.00,WSW,245,11.0,16.0,37,0.00,,,-99.99,,2013-04-08 03:34:00,
2013-04-07 21:47:00,34.0,11.0,-100.00,WSW,240,13.0,17.0,36,0.00,,,-99.99,,2013-04-08 03:47:00,
2013-04-07 21:53:00,36.0,11.0,-100.00,WSW,250,14.0,21.0,34,0.00,,,-99.99,,2013-04-08 03:53:00,
2013-04-07 22:03:00,35.0,10.0,-100.00,WSW,245,10.0,14.0,35,0.00,,,-99.99,,2013-04-08 04:03:00,
2013-04-07 22:12:00,34.0,9.0,-100.00,WSW,240,7.0,12.0,35,0.00,,,-99.99,,2013-04-08 04:12:00,
2013-04-07 22:23:00,32.0,9.0,-100.00,WNW,300,7.0,10.0,37,0.00,,,-99.99,,2013-04-08 04:23:00,
2013-04-07 22:33:00,33.0,10.0,-100.00,NW,325,9.0,13.0,36,0.00,,,-99.99,,2013-04-08 04:33:00,
2013-04-07 22:44:00,34.0,9.0,-100.00,WNW,300,10.0,14.0,34,0.00,,,-99.99,,2013-04-08 04:44:00,
2013-04-07 22:52:00,31.0,9.0,-100.00,West,265,6.0,11.0,37,0.00,,,-99.99,,2013-04-08 04:52:00,
2013-04-07 23:02:00,31.0,9.0,-100.00,SW,225,7.0,9.0,39,0.00,,,-99.99,,2013-04-08 05:02:00,
2013-04-07 23:12:00,29.0,8.0,-100.00,SSE,165,6.0,9.0,41,0.00,,,-99.99,,2013-04-08 05:12:00,
2013-04-07 23:22:00,29.0,8.0,-100.00,SSE,165,6.0,9.0,41,0.00,,,-99.99,,2013-04-08 05:22:00,
2013-04-07 23:32:00,28.0,9.0,-100.00,SSE,165,6.0,8.0,44,0.00,,,-99.99,,2013-04-08 05:32:00,
2013-04-07 23:42:00,27.0,11.0,-100.00,South,190,1.0,7.0,49,0.00,,,-99.99,,2013-04-08 05:42:00,
2013-04-07 23:52:00,29.0,13.0,-100.00,WSW,240,9.0,14.0,49,0.00,,,-99.99,,2013-04-08 05:52:00,